Scroll down
FLIGHT INFORMATION
Janet

WWW561

At Arrival Gate

KHIF
 KLAS
DATE: 2020-03-08
GATE:  -
GATE DEPARTURE: 00:15
TAKEOFF: 00:16
DATE: 2020-03-08
GATE:  -
LANDING: 01:16
GATE ARRIVAL: 01:22
FLIGHT DATA
Crew: 
Speed: 
459 kts
Altitude: 
41,007 ft
Stage Length: 
337.5 nm
Block Time: 
1.1 hrs
Flight Time: 
1 hrs
Fuel Used: 
4,991 lb
Cleared Route: 
TRACK DATA
50,000 ft 1,000 kts
AIRCRAFT INFO AND CUMULATIVE STATS
Aircraft Type: 
B736
Registration: 
SELCAL: 
NULL
MSN/LN: 
28650 / 932
Operator: 
Total Flights: 
11
Total Block Time: 
18.5 hrs
Total Flight Time: 
15.3 hrs
Total Fuel Used: 
62,855 lb
DATALINK LOG | Newest first | Current as of: 2022-11-26 09:36:16
LABEL SEQUENCE CONTENT Dn/Up
QD221801:22 4.6▼ Dn
QC160701:16▼ Dn
QB162000:16▼ Dn
QA163800:15 9.6▼ Dn
5U2952KLAS 080242Z 0803/0906 22012KT P6SM FEW100 BKN150 FM081600 20010KT P6SM FEW100 SCT250 FM081900 21012G21KT P6SM FEW100 SCT250 FM090400 21012KT P6SM BKN250▲ Up
5U2952TAF KHIF 072200Z 0722/0904 17015G25KT 9999SCTBKN200 510009 QNH2985INS BECMG 0805/0806 18012KT 8000 -SHRA BKN040 OVC090 QNH2976INS BECMG 0809/0810 26009KT 8000 -SHRA OVC030 QNH2979INS TX18/0722Z TN04/0814Z▲ Up
5S1024KHIF KLAS▼ Dn
2U2951KLAS 080356Z 23010KT 10SM BKN160 BKN250 18/M01 A2979 RMK AO2 SLP076 T01781006▲ Up
2U2951KHIF 080358Z AUTO 19013KT 10SM OVC090 12/M02 A2973 RMK AO2 SLP032 T01191016▲ Up
2S1015KHIF KLAS▼ Dn
5U2252KLAS 080242Z 0803/0906 22012KT P6SM FEW100 BKN150 FM081600 20010KT P6SM FEW100 SCT250 FM081900 21012G21KT P6SM FEW100 SCT250 FM090400 21012KT P6SM BKN250▲ Up
5U2252TAF KHIF 072200Z 0722/0904 17015G25KT 9999SCTBKN200 510009 QNH2985INS BECMG 0805/0806 18012KT 8000 -SHRA BKN040 OVC090 QNH2976INS BECMG 0809/0810 26009KT 8000 -SHRA OVC030 QNH2979INS TX18/0722Z TN04/0814Z▲ Up
5S0640KHIF KLAS▼ Dn
2U2252KHIF 080358Z AUTO 19013KT 10SM OVC090 12/M02 A2973 RMK AO2 SLP032 T01191016▲ Up
2U2252KLAS 080356Z 23010KT 10SM BKN160 BKN250 18/M01 A2979 RMK AO2 SLP076 T01781006▲ Up
2S0631KHIF KLAS▼ Dn
A30821CLEARED TO KLAS VIA KRIF BCE LUXOR2. SQUAWK 5347.▲ Up
A30432CLEARED TO KLAS VIA KRIF BCE LUXOR2. SQUAWK 4136.▲ Up
5U0431KLAS 080242Z 0803/0906 22012KT P6SM FEW100 BKN150 FM081600 20010KT P6SM FEW100 SCT250 FM081900 21012G21KT P6SM FEW100 SCT250 FM090400 21012KT P6SM BKN250▲ Up
5U0431TAF KHIF 072200Z 0722/0904 17015G25KT 9999SCTBKN200 510009 QNH2985INS BECMG 0805/0806 18012KT 8000 -SHRA BKN040 OVC090 QNH2976INS BECMG 0809/0810 26009KT 8000 -SHRA OVC030 QNH2979INS TX18/0722Z TN04/0814Z▲ Up
5S5603KHIF KLAS▼ Dn
2U0431KLAS 080356Z 23010KT 10SM BKN160 BKN250 18/M01 A2979 RMK AO2 SLP076 T01781006▲ Up
2S5650KHIF KLAS▼ Dn
Q00322[LINK ACK]▲ Up
Q05408[LINK TEST]▼ Dn


AIRCRAFT HISTORY
FLIGHT DATE FLIGHT NO. ORIGIN DESTINATION CLEARED ROUTE BLOCK TIME FLIGHT TIME FUEL USED PILOT
2020-11-21WWW61KHIF KLAS KHIF DTA MLF MPIRE KSINO ZIGGG SITEE HEREI AAMMM LOOSN GRMPS RX19R RW19R1.2 hrs1 hrs5,074 lbDan Downs
2020-11-20WWW63KFFO KHIF KFFO VHP JAAVE GORDO SPI BAYLI TWAIN SAAGS MCI CATTS SLOWR HLC OGD CADGO RW143.9 hrs3.7 hrs16,942 lbDan Downs
2020-11-14WWW9KLAS KFFO KLAS FIXIX ROPPR CEASR FORGE WILLW TRALR NICLE DVC HGO SELLS OATHE HYS SLN JUDGE MCI DRIVL WELTS STL JIGSY CAROL FLM LODLL BRYNN KEKEE AMOUR RW05L3.3 hrs3.1 hrs13,708 lbDan Downs
2020-07-02WWW8KRNO KLAS KRNO SPLTM RYANN YERIN BABIT OAL LIDAT BTY LAS RW19L1.2 hrs0.9 hrs5,114 lbDan Downs
2020-03-16WWW316KLAS KRNO 1.7 hrs1.2 hrs7,484 lbCharles Harris
2020-03-08WWW561KHIF KLAS 1.1 hrs1 hrs4,991 lbJhan Jensen
2020-02-29WWW444KXTA KHIF 1.6 hrs1 hrs-4,500 lbJhan Jensen
2020-02-29WWW666KLAS KXTA 0.8 hrs0.4 hrs203 lbJhan Jensen
2020-02-22WWW222KOGD KLAS 1.4 hrs1.1 hrs6,000 lbDan Downs
2020-02-08WWW666KPMD KOGD 1.5 hrs1.2 hrs3,939 lbJhan Jensen
2020-01-26WWW26KLAS KPMD 0.8 hrs0.6 hrs3,821 lbDan Downs